Time;durP1;ratioP1;P1;durP2;ratioP2;P2;SDS_P1;SDS_P2;PMS_P1;PMS_P2;Temp;Humidity;BMP_temperature;BMP_pressure;BME280_temperature;BME280_humidity;BME280_pressure;Samples;Min_cycle;Max_cycle;Signal;HPM_P1;HPM_P2
2023/07/05 00:00:44;;;;;;;6.75;3.20;;;15.70;99.90;;;;;;5077453;28;20601;-81
2023/07/05 00:03:10;;;;;;;6.85;3.05;;;15.70;99.90;;;;;;5084494;28;20040;-80
2023/07/05 00:05:37;;;;;;;8.40;3.17;;;15.70;99.90;;;;;;5078707;28;20093;-81
2023/07/05 00:08:04;;;;;;;8.80;3.10;;;15.60;99.90;;;;;;5080629;28;20067;-81
2023/07/05 00:10:31;;;;;;;7.78;3.25;;;15.60;99.90;;;;;;5057238;28;20040;-82
2023/07/05 00:12:56;;;;;;;6.07;2.90;;;15.60;99.90;;;;;;5080932;28;20454;-81
2023/07/05 00:15:22;;;;;;;7.15;2.92;;;15.60;99.90;;;;;;5059569;28;20036;-81
2023/07/05 00:17:47;;;;;;;11.38;3.30;;;15.50;99.90;;;;;;5063779;28;20408;-81
2023/07/05 00:20:13;;;;;;;7.88;3.30;;;15.50;99.90;;;;;;5080489;28;20400;-82
2023/07/05 00:22:39;;;;;;;8.13;3.33;;;15.60;99.90;;;;;;5064532;28;20112;-80
2023/07/05 00:25:05;;;;;;;11.68;3.40;;;15.60;99.90;;;;;;5083242;28;20447;-80
2023/07/05 00:27:31;;;;;;;9.57;3.40;;;15.50;99.90;;;;;;5075249;28;20416;-82
2023/07/05 00:29:57;;;;;;;8.40;3.38;;;15.60;99.90;;;;;;5085573;28;20044;-80
2023/07/05 00:32:22;;;;;;;8.50;3.53;;;15.50;99.90;;;;;;5077356;28;20137;-82
2023/07/05 00:34:48;;;;;;;6.85;3.83;;;15.50;99.90;;;;;;5083122;28;20063;-81
2023/07/05 00:37:14;;;;;;;8.10;4.05;;;15.50;99.90;;;;;;5092989;28;20383;-82
2023/07/05 00:39:40;;;;;;;8.25;4.10;;;15.50;99.90;;;;;;5087602;28;20043;-82
2023/07/05 00:42:05;;;;;;;8.45;4.75;;;15.40;99.90;;;;;;5084397;28;20040;-81
2023/07/05 00:44:31;;;;;;;7.78;4.10;;;15.40;99.90;;;;;;5088653;28;20036;-81
2023/07/05 00:47:02;;;;;;;8.60;4.47;;;15.40;99.90;;;;;;5085376;28;20407;-83
2023/07/05 00:49:32;;;;;;;9.90;4.28;;;15.40;99.90;;;;;;5084130;28;20043;-81
2023/07/05 00:52:01;;;;;;;9.02;4.63;;;15.40;99.90;;;;;;5063336;28;20458;-82
2023/07/05 00:54:38;;;;;;;10.18;4.20;;;15.30;99.90;;;;;;5077438;28;20036;-82
2023/07/05 00:57:20;;;;;;;7.53;4.10;;;15.30;99.90;;;;;;5067553;28;20039;-81
2023/07/05 00:59:53;;;;;;;9.05;4.10;;;15.30;99.90;;;;;;5086122;28;20086;-80
2023/07/05 01:02:20;;;;;;;7.53;3.80;;;15.30;99.90;;;;;;5081553;28;20380;-82
2023/07/05 01:04:45;;;;;;;5.82;4.10;;;15.30;99.90;;;;;;5068916;28;20043;-81
2023/07/05 01:07:11;;;;;;;8.02;4.50;;;15.30;99.90;;;;;;5090649;28;20089;-81
2023/07/05 01:09:36;;;;;;;10.20;4.22;;;15.30;99.90;;;;;;5088651;28;20048;-82
2023/07/05 01:12:21;;;;;;;8.15;4.30;;;15.30;99.90;;;;;;5083564;28;20183;-81
2023/07/05 01:15:27;;;;;;;11.25;4.55;;;15.30;99.90;;;;;;5086738;28;20045;-80
2023/07/05 01:18:26;;;;;;;7.65;4.50;;;15.30;99.90;;;;;;5077321;28;20878;-83
2023/07/05 01:21:18;;;;;;;8.38;4.57;;;15.30;99.90;;;;;;5066223;28;20041;-82
2023/07/05 01:24:02;;;;;;;15.80;5.32;;;15.30;99.90;;;;;;5078938;28;20051;-83
2023/07/05 01:26:45;;;;;;;7.70;4.60;;;15.20;99.90;;;;;;5085561;28;20116;-83
2023/07/05 01:29:29;;;;;;;6.80;4.55;;;15.20;99.90;;;;;;5090320;28;20044;-81
2023/07/05 01:32:01;;;;;;;;;;;15.20;99.90;;;;;;5086836;28;20105;-81
2023/07/05 01:34:37;;;;;;;8.05;4.80;;;15.20;99.90;;;;;;5063764;28;19975;-82
2023/07/05 01:37:08;;;;;;;7.55;4.43;;;15.20;99.90;;;;;;5087089;28;20043;-82
2023/07/05 01:39:34;;;;;;;8.23;4.90;;;15.10;99.90;;;;;;5084202;28;20399;-82
2023/07/05 01:42:00;;;;;;;8.90;4.70;;;15.20;99.90;;;;;;5068309;28;20036;-81
2023/07/05 01:44:26;;;;;;;11.75;5.30;;;15.10;99.90;;;;;;5069416;28;20498;-81
2023/07/05 01:47:07;;;;;;;11.40;5.30;;;15.10;99.90;;;;;;5086921;28;20040;-82
2023/07/05 01:49:44;;;;;;;51.42;6.03;;;15.10;99.90;;;;;;5082634;28;20040;-81
2023/07/05 01:52:27;;;;;;;12.68;5.45;;;15.10;99.90;;;;;;5066109;28;20051;-83
2023/07/05 01:55:10;;;;;;;11.40;5.50;;;15.00;99.90;;;;;;5084483;28;20520;-83
2023/07/05 01:57:57;;;;;;;11.60;5.55;;;15.00;99.90;;;;;;5082008;28;20035;-83
2023/07/05 02:00:25;;;;;;;9.38;5.80;;;15.00;99.90;;;;;;5079897;28;20039;-83
2023/07/05 02:03:01;;;;;;;11.90;6.22;;;14.90;99.90;;;;;;5084050;28;20036;-82
2023/07/05 02:05:29;;;;;;;11.25;6.47;;;14.90;99.90;;;;;;5082781;28;20059;-83
2023/07/05 02:07:57;;;;;;;11.82;6.18;;;14.90;99.90;;;;;;5081592;28;20417;-82
2023/07/05 02:10:23;;;;;;;12.73;6.65;;;14.90;99.90;;;;;;5067516;28;20063;-82
2023/07/05 02:12:51;;;;;;;12.35;7.40;;;14.80;99.90;;;;;;5079419;28;20078;-82
2023/07/05 02:15:17;;;;;;;11.13;7.22;;;14.90;99.90;;;;;;5094732;28;20083;-83
2023/07/05 02:17:42;;;;;;;10.20;7.10;;;14.90;99.90;;;;;;5094115;28;20036;-85
2023/07/05 02:20:08;;;;;;;11.82;7.78;;;14.90;99.90;;;;;;5076759;28;20036;-84
2023/07/05 02:22:33;;;;;;;11.85;7.80;;;14.90;99.90;;;;;;5094284;28;20385;-81
2023/07/05 02:24:59;;;;;;;15.85;8.38;;;14.80;99.90;;;;;;5091926;28;20047;-81
2023/07/05 02:27:27;;;;;;;15.60;8.20;;;14.80;99.90;;;;;;5094362;28;20028;-80
2023/07/05 02:29:53;;;;;;;15.20;8.82;;;14.80;99.90;;;;;;5085685;28;20040;-81
2023/07/05 02:32:20;;;;;;;12.48;9.00;;;14.80;99.90;;;;;;5074257;28;20032;-82
2023/07/05 02:34:46;;;;;;;14.85;9.25;;;14.80;99.90;;;;;;5086775;28;20076;-81
2023/07/05 02:37:12;;;;;;;15.32;8.68;;;14.80;99.90;;;;;;5083531;28;20063;-84
2023/07/05 02:39:38;;;;;;;18.33;10.25;;;14.80;99.90;;;;;;5076825;28;20039;-83
2023/07/05 02:42:04;;;;;;;15.20;9.85;;;14.70;99.90;;;;;;5062995;28;20531;-83
2023/07/05 02:44:30;;;;;;;13.82;9.65;;;14.80;99.90;;;;;;5084600;28;20036;-82
2023/07/05 02:46:55;;;;;;;15.52;10.73;;;14.80;99.90;;;;;;5096766;28;20039;-80
2023/07/05 02:49:21;;;;;;;16.00;10.13;;;14.80;99.90;;;;;;5081977;28;20032;-83
2023/07/05 02:51:46;;;;;;;19.25;10.70;;;14.80;99.90;;;;;;5079738;28;20044;-81
2023/07/05 02:54:12;;;;;;;17.25;11.07;;;14.80;99.90;;;;;;5061119;28;21755;-82
2023/07/05 02:56:38;;;;;;;17.00;10.60;;;14.80;99.90;;;;;;5084351;28;20096;-82
2023/07/05 02:59:04;;;;;;;18.38;10.20;;;14.80;99.90;;;;;;5066436;28;20194;-82
2023/07/05 03:01:29;;;;;;;17.52;10.00;;;14.70;99.90;;;;;;5074636;28;20136;-80
2023/07/05 03:03:55;;;;;;;15.40;9.68;;;14.70;99.90;;;;;;5083758;28;20047;-80
2023/07/05 03:06:20;;;;;;;14.73;10.25;;;14.70;99.90;;;;;;5066347;28;20040;-82
2023/07/05 03:08:47;;;;;;;20.15;9.48;;;14.70;99.90;;;;;;5082972;28;20036;-80
2023/07/05 03:11:13;;;;;;;14.68;9.02;;;14.70;99.90;;;;;;5062161;28;20135;-80
2023/07/05 03:13:38;;;;;;;14.10;8.40;;;14.70;99.90;;;;;;5085257;28;20083;-80
2023/07/05 03:16:05;;;;;;;14.57;9.07;;;14.70;99.90;;;;;;5079051;28;20789;-81
2023/07/05 03:18:31;;;;;;;13.55;9.18;;;14.70;99.90;;;;;;5078634;28;20028;-78
2023/07/05 03:20:56;;;;;;;18.13;8.77;;;14.70;99.90;;;;;;5079624;28;20061;-80
2023/07/05 03:23:22;;;;;;;14.75;9.63;;;14.70;99.90;;;;;;5087772;28;20421;-78
2023/07/05 03:25:59;;;;;;;11.85;9.00;;;14.70;99.90;;;;;;5083649;28;20032;-77
2023/07/05 03:28:29;;;;;;;10.73;8.38;;;14.70;99.90;;;;;;5081256;28;20052;-83
2023/07/05 03:30:57;;;;;;;13.90;9.10;;;14.60;99.90;;;;;;5082824;28;20065;-80
2023/07/05 03:33:23;;;;;;;15.23;9.25;;;14.60;99.90;;;;;;5075249;28;20407;-81
2023/07/05 03:35:59;;;;;;;14.57;9.52;;;14.60;99.90;;;;;;5078363;28;20438;-80
2023/07/05 03:38:27;;;;;;;11.90;8.93;;;14.60;99.90;;;;;;5076870;28;20060;-80
2023/07/05 03:41:00;;;;;;;13.20;9.70;;;14.60;99.90;;;;;;5083474;28;20044;-80
2023/07/05 03:43:27;;;;;;;12.88;8.77;;;14.70;99.90;;;;;;5080991;28;20051;-82
2023/07/05 03:45:53;;;;;;;12.65;9.10;;;14.70;99.90;;;;;;5077772;28;20044;-81
2023/07/05 03:48:21;;;;;;;10.98;9.10;;;14.70;99.90;;;;;;5080796;28;20503;-81
2023/07/05 03:50:46;;;;;;;14.00;9.40;;;14.70;99.90;;;;;;5079021;28;20044;-81
2023/07/05 03:53:12;;;;;;;16.30;8.70;;;14.70;99.90;;;;;;5094199;28;20494;-79
2023/07/05 03:55:38;;;;;;;15.57;9.57;;;14.80;99.90;;;;;;5098559;28;20033;-81
2023/07/05 03:58:03;;;;;;;13.13;8.85;;;14.80;99.90;;;;;;5093175;28;20457;-79
2023/07/05 04:00:29;;;;;;;14.27;8.95;;;14.80;99.90;;;;;;5076934;28;20130;-80
2023/07/05 04:02:54;;;;;;;13.52;9.60;;;14.80;99.90;;;;;;5093350;28;20051;-81
2023/07/05 04:05:20;;;;;;;12.73;8.70;;;14.80;99.90;;;;;;5094158;28;20127;-80
2023/07/05 04:07:46;;;;;;;12.77;8.57;;;14.80;99.90;;;;;;5092831;28;20040;-80
2023/07/05 04:10:12;;;;;;;10.75;7.72;;;14.80;99.90;;;;;;5093282;28;20036;-80
2023/07/05 04:12:37;;;;;;;10.32;7.75;;;14.80;99.90;;;;;;5091804;28;20054;-81
2023/07/05 04:15:03;;;;;;;11.60;7.57;;;14.90;99.90;;;;;;5093163;28;20028;-80
2023/07/05 04:17:30;;;;;;;10.55;7.90;;;14.90;99.90;;;;;;5092805;28;20028;-79
2023/07/05 04:19:55;;;;;;;12.60;8.35;;;15.00;99.90;;;;;;5093793;28;20036;-81
2023/07/05 04:22:21;;;;;;;10.48;8.30;;;15.00;99.90;;;;;;5077414;28;20048;-80
2023/07/05 04:24:46;;;;;;;9.85;8.32;;;15.00;99.90;;;;;;5092720;28;20040;-78
2023/07/05 04:27:13;;;;;;;13.13;8.30;;;15.00;99.90;;;;;;5083581;28;20053;-79
2023/07/05 04:29:38;;;;;;;8.68;7.28;;;15.10;99.90;;;;;;5093834;28;20459;-78
2023/07/05 04:32:04;;;;;;;9.85;8.20;;;15.00;99.90;;;;;;5094241;28;20040;-81
2023/07/05 04:34:29;;;;;;;13.63;9.30;;;15.10;99.90;;;;;;5093817;28;20114;-78
2023/07/05 04:36:55;;;;;;;12.32;9.27;;;15.10;99.90;;;;;;5094538;28;20495;-79
2023/07/05 04:39:20;;;;;;;13.20;8.77;;;15.20;99.90;;;;;;5093938;28;20036;-79
2023/07/05 04:41:46;;;;;;;10.68;8.38;;;15.10;99.90;;;;;;5091717;28;20032;-77
2023/07/05 04:44:11;;;;;;;12.32;8.18;;;15.10;99.90;;;;;;5088069;28;20032;-77
2023/07/05 04:46:37;;;;;;;10.77;8.30;;;15.20;99.90;;;;;;5087408;28;20388;-78
2023/07/05 04:49:02;;;;;;;10.07;7.75;;;15.10;99.90;;;;;;5061906;28;20040;-78
2023/07/05 04:51:28;;;;;;;9.35;7.40;;;15.20;99.90;;;;;;5066028;28;20040;-79
2023/07/05 04:53:53;;;;;;;12.05;7.15;;;15.10;99.90;;;;;;5077711;28;20038;-77
2023/07/05 04:56:19;;;;;;;9.57;6.82;;;15.10;99.90;;;;;;5086520;28;20039;-79
2023/07/05 04:58:48;;;;;;;9.57;6.40;;;15.10;99.90;;;;;;5092148;28;20063;-75
2023/07/05 05:01:14;;;;;;;10.93;6.47;;;15.10;99.90;;;;;;5086017;28;20082;-76
2023/07/05 05:03:40;;;;;;;8.77;5.75;;;15.10;99.90;;;;;;5089010;28;20408;-78
2023/07/05 05:06:05;;;;;;;8.75;5.35;;;15.10;99.90;;;;;;5083863;28;20507;-78
2023/07/05 05:08:31;;;;;;;8.30;4.57;;;15.10;99.90;;;;;;5077323;28;20043;-76
2023/07/05 05:11:03;;;;;;;6.45;4.15;;;15.00;99.90;;;;;;5061173;28;20041;-78
2023/07/05 05:13:30;;;;;;;6.35;3.90;;;14.90;99.90;;;;;;5093010;28;20025;-80
2023/07/05 05:15:56;;;;;;;6.13;3.92;;;14.80;99.90;;;;;;5085734;28;20067;-79
2023/07/05 05:18:23;;;;;;;6.03;4.00;;;14.80;99.90;;;;;;5074258;28;20059;-78
2023/07/05 05:20:49;;;;;;;9.25;4.35;;;14.70;99.90;;;;;;5078774;28;20048;-78
2023/07/05 05:23:15;;;;;;;6.20;3.47;;;14.70;99.90;;;;;;5082905;28;20072;-77
2023/07/05 05:25:42;;;;;;;8.10;4.20;;;14.70;99.90;;;;;;5084103;28;20040;-78
2023/07/05 05:28:08;;;;;;;6.68;4.03;;;14.70;99.90;;;;;;5079217;28;20564;-79
2023/07/05 05:30:35;;;;;;;6.40;4.28;;;14.70;99.90;;;;;;5082094;28;20385;-78
2023/07/05 05:33:01;;;;;;;6.20;4.47;;;14.70;99.90;;;;;;5088866;28;20066;-78
2023/07/05 05:35:27;;;;;;;10.00;4.60;;;14.70;99.90;;;;;;5094644;28;20501;-75
2023/07/05 05:37:53;;;;;;;7.00;4.07;;;14.70;99.90;;;;;;5092543;28;20089;-75
2023/07/05 05:40:19;;;;;;;5.30;4.22;;;14.70;99.90;;;;;;5092393;28;20031;-76
2023/07/05 05:42:44;;;;;;;5.38;4.22;;;14.70;99.90;;;;;;5090367;28;20035;-76
2023/07/05 05:45:10;;;;;;;6.93;4.00;;;14.90;99.90;;;;;;5090248;28;20037;-77
2023/07/05 05:47:36;;;;;;;5.88;4.22;;;15.00;99.90;;;;;;5093062;28;20396;-76
2023/07/05 05:50:02;;;;;;;5.35;3.95;;;15.00;99.90;;;;;;5092331;28;20051;-76
2023/07/05 05:52:27;;;;;;;6.68;4.40;;;15.00;99.90;;;;;;5092958;28;20058;-77
2023/07/05 05:54:53;;;;;;;6.45;4.30;;;15.10;99.90;;;;;;5079872;28;20036;-77
2023/07/05 05:57:18;;;;;;;5.93;4.20;;;15.10;99.90;;;;;;5082254;28;20602;-77
2023/07/05 05:59:44;;;;;;;10.73;4.82;;;15.10;99.90;;;;;;5074022;28;20037;-77
2023/07/05 06:02:09;;;;;;;10.80;4.53;;;15.10;99.90;;;;;;5059423;28;20037;-77
2023/07/05 06:04:35;;;;;;;6.95;4.53;;;15.00;99.90;;;;;;5078696;28;20051;-76
2023/07/05 06:07:01;;;;;;;6.38;4.03;;;15.00;99.90;;;;;;5083214;28;20036;-77
2023/07/05 06:09:26;;;;;;;6.13;3.70;;;15.10;99.90;;;;;;5093091;28;20495;-78
2023/07/05 06:11:52;;;;;;;6.82;3.75;;;15.20;99.90;;;;;;5090686;28;20044;-77
2023/07/05 06:14:17;;;;;;;6.30;3.75;;;15.20;99.90;;;;;;5087037;28;20037;-76
2023/07/05 06:16:43;;;;;;;5.50;3.67;;;15.30;99.90;;;;;;5093013;28;20395;-77
2023/07/05 06:19:08;;;;;;;6.13;3.47;;;15.30;99.90;;;;;;5088152;28;20037;-77
2023/07/05 06:21:34;;;;;;;6.55;3.88;;;15.20;99.90;;;;;;5092135;28;20048;-78
2023/07/05 06:23:59;;;;;;;6.05;3.80;;;15.20;99.90;;;;;;5092302;28;20126;-78
2023/07/05 06:26:25;;;;;;;7.97;3.42;;;15.10;99.90;;;;;;5090059;28;20078;-78
2023/07/05 06:28:50;;;;;;;5.90;3.80;;;15.20;99.90;;;;;;5074291;28;20055;-74
2023/07/05 06:31:17;;;;;;;7.43;3.95;;;15.20;99.90;;;;;;5091981;28;20124;-76
2023/07/05 06:33:43;;;;;;;6.45;3.38;;;15.20;99.90;;;;;;5090884;28;20091;-76
2023/07/05 06:36:09;;;;;;;5.75;3.50;;;15.20;99.90;;;;;;5091122;28;20067;-74
2023/07/05 06:38:35;;;;;;;5.35;3.58;;;15.30;99.90;;;;;;5090864;28;20451;-73
2023/07/05 06:41:00;;;;;;;5.05;3.55;;;15.30;99.90;;;;;;5092013;28;20067;-75
2023/07/05 06:43:26;;;;;;;5.80;3.15;;;15.50;99.90;;;;;;5090186;28;20568;-75
2023/07/05 06:45:54;;;;;;;4.75;3.17;;;15.70;99.90;;;;;;5074036;28;20502;-76
2023/07/05 06:48:20;;;;;;;8.50;3.30;;;15.70;99.90;;;;;;5084547;28;20051;-75
2023/07/05 06:50:54;;;;;;;7.00;3.40;;;15.60;99.90;;;;;;5091086;28;20044;-75
2023/07/05 06:53:20;;;;;;;5.55;3.38;;;15.60;99.90;;;;;;5090857;28;20093;-76
2023/07/05 06:55:47;;;;;;;4.43;3.33;;;15.40;99.90;;;;;;5091056;28;20093;-74
2023/07/05 06:58:13;;;;;;;5.85;3.42;;;15.40;99.90;;;;;;5090916;28;20036;-74
2023/07/05 07:00:39;;;;;;;5.15;3.08;;;15.30;99.90;;;;;;5090950;28;20419;-75
2023/07/05 07:03:05;;;;;;;4.90;3.25;;;15.40;99.90;;;;;;5087454;28;20037;-75
2023/07/05 07:05:30;;;;;;;5.35;3.10;;;15.60;99.90;;;;;;5090948;28;20043;-76
2023/07/05 07:07:56;;;;;;;5.80;3.45;;;15.80;99.90;;;;;;5090794;28;20096;-77
2023/07/05 07:10:22;;;;;;;6.82;3.28;;;15.90;99.90;;;;;;5090793;28;20043;-75
2023/07/05 07:12:47;;;;;;;8.13;3.63;;;16.20;99.90;;;;;;5091525;28;20519;-77
2023/07/05 07:15:13;;;;;;;6.80;3.20;;;16.40;99.90;;;;;;5092322;28;20048;-74
2023/07/05 07:17:38;;;;;;;6.13;3.30;;;16.70;99.90;;;;;;5086270;28;20077;-74
2023/07/05 07:20:05;;;;;;;5.68;3.45;;;16.70;99.90;;;;;;5090323;28;20043;-75
2023/07/05 07:22:31;;;;;;;8.43;3.30;;;16.90;99.90;;;;;;5069317;28;20451;-75
2023/07/05 07:24:56;;;;;;;5.32;3.03;;;16.90;99.90;;;;;;5089857;28;20067;-73
2023/07/05 07:27:21;;;;;;;5.82;2.90;;;16.60;99.90;;;;;;5089343;28;20101;-74
2023/07/05 07:29:47;;;;;;;6.43;3.30;;;16.40;99.90;;;;;;5085687;28;20037;-76
2023/07/05 07:32:13;;;;;;;5.10;2.90;;;16.00;99.90;;;;;;5088078;28;20039;-74
2023/07/05 07:34:40;;;;;;;6.22;3.38;;;15.70;99.90;;;;;;5090110;28;20039;-75
2023/07/05 07:37:05;;;;;;;4.05;2.88;;;15.70;99.90;;;;;;5090116;28;20111;-74
2023/07/05 07:39:31;;;;;;;4.82;3.00;;;15.70;99.90;;;;;;5089439;28;20083;-74
2023/07/05 07:41:57;;;;;;;3.45;2.47;;;15.70;99.90;;;;;;5089574;28;20036;-73
2023/07/05 07:44:22;;;;;;;4.65;2.50;;;15.40;99.90;;;;;;5088271;28;20495;-73
2023/07/05 07:46:48;;;;;;;5.32;2.53;;;15.30;99.90;;;;;;5089396;28;20059;-73
2023/07/05 07:49:14;;;;;;;6.63;3.05;;;15.10;99.90;;;;;;5089799;28;20039;-72
2023/07/05 07:51:44;;;;;;;4.32;2.60;;;15.00;99.90;;;;;;5089830;28;20040;-71
2023/07/05 07:54:18;;;;;;;3.80;2.40;;;14.70;99.90;;;;;;5086956;28;20051;-72
2023/07/05 07:56:47;;;;;;;5.35;2.55;;;14.60;99.90;;;;;;5088876;28;20024;-72
2023/07/05 07:59:14;;;;;;;4.30;2.55;;;14.30;99.90;;;;;;5077722;28;20451;-73
2023/07/05 08:01:41;;;;;;;4.82;2.40;;;14.20;99.90;;;;;;5083258;28;20065;-72
2023/07/05 08:04:11;;;;;;;3.35;2.10;;;13.90;99.90;;;;;;5071731;28;20090;-71
2023/07/05 08:06:45;;;;;;;3.53;1.52;;;13.80;99.90;;;;;;5077052;28;20040;-73
2023/07/05 08:09:20;;;;;;;3.35;1.27;;;13.60;99.90;;;;;;5083792;28;20047;-75
2023/07/05 08:11:45;;;;;;;2.95;1.33;;;13.30;99.90;;;;;;5081200;28;20052;-71
2023/07/05 08:14:13;;;;;;;2.38;1.33;;;13.30;99.90;;;;;;5086561;28;20087;-72
2023/07/05 08:16:39;;;;;;;1.52;0.90;;;13.20;99.90;;;;;;5080962;28;20083;-74
2023/07/05 08:19:05;;;;;;;2.38;1.27;;;13.10;99.90;;;;;;5076120;28;20033;-73
2023/07/05 08:21:30;;;;;;;3.33;1.13;;;12.90;99.90;;;;;;5082779;28;20054;-73
2023/07/05 08:23:56;;;;;;;2.90;1.05;;;12.80;99.90;;;;;;5079968;28;20035;-72
2023/07/05 08:26:22;;;;;;;1.80;0.80;;;12.70;99.90;;;;;;5080563;28;20055;-75
2023/07/05 08:28:47;;;;;;;1.52;0.82;;;12.60;99.90;;;;;;5080121;28;20044;-73
2023/07/05 08:31:13;;;;;;;1.45;0.80;;;12.60;99.90;;;;;;5084888;28;20036;-71
2023/07/05 08:33:39;;;;;;;1.98;0.75;;;12.60;99.90;;;;;;5076737;28;20089;-74
2023/07/05 08:36:07;;;;;;;1.52;0.70;;;12.50;99.90;;;;;;5083023;28;20068;-73
2023/07/05 08:38:32;;;;;;;2.47;1.00;;;12.50;99.90;;;;;;5083645;28;20127;-71
2023/07/05 08:41:16;;;;;;;2.40;1.05;;;12.50;99.90;;;;;;5075442;28;20051;-73
2023/07/05 08:43:58;;;;;;;1.13;0.67;;;12.40;99.90;;;;;;5071186;28;20790;-74
2023/07/05 08:46:25;;;;;;;2.38;0.80;;;12.40;99.90;;;;;;5076079;28;20025;-71
2023/07/05 08:48:58;;;;;;;1.63;0.82;;;12.40;99.90;;;;;;5079959;28;20044;-71
2023/07/05 08:51:24;;;;;;;3.13;0.90;;;12.30;99.90;;;;;;5077423;28;20045;-72
2023/07/05 08:53:56;;;;;;;2.90;0.70;;;12.40;99.90;;;;;;5067673;28;20047;-70
2023/07/05 08:56:36;;;;;;;3.35;0.80;;;12.30;99.90;;;;;;5085652;28;20097;-71
2023/07/05 08:59:31;;;;;;;2.90;0.93;;;12.30;99.90;;;;;;5091217;28;20035;-72
2023/07/05 09:01:59;;;;;;;2.45;1.00;;;12.30;99.90;;;;;;5074468;28;20415;-70
2023/07/05 09:04:34;;;;;;;2.00;0.90;;;12.20;99.90;;;;;;5077147;28;20048;-70
2023/07/05 09:07:24;;;;;;;2.17;0.95;;;12.30;99.90;;;;;;5080255;28;20127;-73
2023/07/05 09:09:52;;;;;;;3.47;1.20;;;12.30;99.90;;;;;;5078085;28;20041;-75
2023/07/05 09:12:30;;;;;;;3.42;1.52;;;12.30;99.90;;;;;;5059324;28;20036;-71
2023/07/05 09:15:09;;;;;;;3.40;1.38;;;12.30;99.90;;;;;;5074931;28;20072;-69
2023/07/05 09:17:52;;;;;;;4.10;1.35;;;12.30;99.90;;;;;;5076378;28;20040;-71
2023/07/05 09:20:23;;;;;;;5.40;1.70;;;12.40;99.90;;;;;;5088833;28;20032;-72
2023/07/05 09:22:50;;;;;;;6.15;1.80;;;12.40;99.90;;;;;;5078308;28;20047;-73
2023/07/05 09:25:18;;;;;;;7.93;2.15;;;12.50;99.90;;;;;;5074224;28;20123;-72
2023/07/05 09:27:49;;;;;;;7.13;1.90;;;12.50;99.90;;;;;;5079347;28;20036;-71
2023/07/05 09:30:24;;;;;;;4.38;1.48;;;12.60;99.90;;;;;;5069041;28;20130;-72
2023/07/05 09:33:02;;;;;;;10.25;1.45;;;12.70;99.90;;;;;;5077406;28;20036;-75
2023/07/05 09:35:30;;;;;;;5.85;1.00;;;12.80;99.90;;;;;;5075493;28;20567;-75
2023/07/05 09:38:02;;;;;;;6.38;0.80;;;12.90;99.90;;;;;;5083082;28;20070;-74
2023/07/05 09:40:33;;;;;;;7.93;0.90;;;13.00;99.90;;;;;;5073308;28;20036;-73
2023/07/05 09:43:02;;;;;;;7.45;0.75;;;13.00;99.90;;;;;;5085745;28;20032;-74
2023/07/05 09:45:28;;;;;;;5.72;0.70;;;13.10;99.90;;;;;;5079513;28;20094;-72
2023/07/05 09:48:00;;;;;;;7.80;0.82;;;13.20;99.90;;;;;;5077105;28;20040;-76
2023/07/05 09:50:26;;;;;;;3.30;0.70;;;13.20;99.90;;;;;;5082444;28;20024;-73
2023/07/05 09:52:58;;;;;;;5.95;0.70;;;13.30;99.90;;;;;;5077729;28;20114;-74
2023/07/05 09:55:26;;;;;;;6.00;0.70;;;13.30;99.90;;;;;;5077496;28;20032;-73
2023/07/05 09:57:52;;;;;;;3.35;0.90;;;13.40;99.90;;;;;;5072894;28;20044;-73
2023/07/05 10:00:35;;;;;;;6.03;1.00;;;13.50;99.90;;;;;;5081713;28;20040;-74
2023/07/05 10:03:12;;;;;;;3.75;1.33;;;13.50;99.90;;;;;;5076356;28;20036;-73
2023/07/05 10:05:38;;;;;;;4.00;0.70;;;13.60;99.90;;;;;;5072819;28;20085;-73
2023/07/05 10:08:15;;;;;;;4.90;0.50;;;13.70;99.90;;;;;;5083424;28;20048;-73
2023/07/05 10:10:41;;;;;;;2.33;0.50;;;13.90;99.90;;;;;;5079570;28;20043;-72
2023/07/05 10:13:15;;;;;;;3.10;0.50;;;14.00;99.90;;;;;;5075528;28;20399;-73
2023/07/05 10:15:47;;;;;;;4.82;0.98;;;14.30;99.90;;;;;;5088504;28;20055;-74
2023/07/05 10:18:27;;;;;;;6.10;0.82;;;14.60;99.90;;;;;;5077137;28;20559;-74
2023/07/05 10:20:56;;;;;;;2.53;0.47;;;14.70;99.90;;;;;;5085011;28;20049;-73
2023/07/05 10:23:23;;;;;;;1.88;0.55;;;14.70;99.90;;;;;;5075985;28;20119;-72
2023/07/05 10:25:52;;;;;;;2.50;0.70;;;15.00;99.90;;;;;;5077833;28;20055;-73
2023/07/05 10:28:25;;;;;;;2.35;0.50;;;15.20;99.90;;;;;;5074026;28;20044;-75
2023/07/05 10:30:59;;;;;;;2.35;0.57;;;15.40;99.90;;;;;;5071401;28;20038;-73
2023/07/05 10:33:27;;;;;;;5.75;0.70;;;15.60;99.90;;;;;;5076808;28;20032;-73
2023/07/05 10:35:59;;;;;;;2.47;0.68;;;15.90;99.90;;;;;;5076187;28;20506;-74
2023/07/05 10:38:27;;;;;;;3.20;0.60;;;16.30;99.90;;;;;;5075139;28;20082;-75
2023/07/05 10:41:00;;;;;;;1.35;0.50;;;16.40;99.90;;;;;;5077644;28;20040;-73
2023/07/05 10:43:30;;;;;;;1.20;0.50;;;16.50;99.90;;;;;;5060128;28;20125;-75
2023/07/05 10:45:55;;;;;;;1.85;0.70;;;16.40;99.90;;;;;;5073818;28;20048;-74
2023/07/05 10:48:29;;;;;;;1.77;0.68;;;16.50;99.90;;;;;;5061316;28;20036;-73
2023/07/05 10:50:54;;;;;;;1.38;0.63;;;16.30;99.90;;;;;;5088478;28;20076;-74
2023/07/05 10:53:23;;;;;;;1.58;0.68;;;16.30;99.90;;;;;;5077628;28;20125;-74
2023/07/05 10:56:09;;;;;;;6.28;0.80;;;16.20;99.90;;;;;;5065038;28;20045;-74
2023/07/05 10:58:42;;;;;;;2.10;0.60;;;16.20;99.90;;;;;;5077674;28;20047;-75
2023/07/05 11:01:18;;;;;;;3.35;0.70;;;16.30;99.90;;;;;;5058428;28;20047;-75
2023/07/05 11:03:51;;;;;;;1.67;0.70;;;16.50;99.90;;;;;;5077056;28;20041;-75
2023/07/05 11:06:18;;;;;;;2.67;0.75;;;16.90;99.90;;;;;;5079709;28;20036;-74
2023/07/05 11:08:47;;;;;;;3.45;0.90;;;17.10;99.90;;;;;;5075091;28;20051;-74
2023/07/05 11:11:20;;;;;;;6.85;1.13;;;17.10;99.90;;;;;;5080000;28;20049;-75
2023/07/05 11:13:48;;;;;;;3.42;0.77;;;17.20;99.90;;;;;;5074905;28;20506;-76
2023/07/05 11:16:19;;;;;;;3.05;1.00;;;17.40;99.90;;;;;;5073790;28;20032;-76
2023/07/05 11:18:46;;;;;;;2.67;0.88;;;17.50;99.90;;;;;;5057436;28;20040;-76
2023/07/05 11:21:32;;;;;;;3.25;0.90;;;17.60;99.90;;;;;;5077086;28;20072;-76
2023/07/05 11:23:58;;;;;;;2.72;1.20;;;17.90;99.90;;;;;;5056158;28;20120;-74
2023/07/05 11:26:33;;;;;;;4.57;0.90;;;17.90;99.90;;;;;;5078350;28;20194;-74
2023/07/05 11:28:58;;;;;;;4.45;1.20;;;18.00;99.90;;;;;;5079477;28;20036;-75
2023/07/05 11:31:27;;;;;;;4.68;1.08;;;17.90;99.90;;;;;;5078511;28;20063;-74
2023/07/05 11:34:20;;;;;;;4.78;0.88;;;18.10;99.90;;;;;;5083647;28;20093;-76
2023/07/05 11:37:04;;;;;;;6.95;1.10;;;18.20;99.90;;;;;;5080362;28;20040;-75
2023/07/05 11:39:36;;;;;;;5.43;1.00;;;18.20;99.90;;;;;;5078161;28;20032;-76
2023/07/05 11:42:17;;;;;;;5.93;1.30;;;18.20;99.90;;;;;;5072611;28;20048;-74
2023/07/05 11:44:48;;;;;;;4.70;1.00;;;18.20;99.90;;;;;;5074961;28;20037;-75
2023/07/05 11:47:22;;;;;;;3.25;1.02;;;18.30;99.90;;;;;;5071851;28;20496;-75
2023/07/05 11:49:56;;;;;;;5.60;1.13;;;18.40;99.90;;;;;;5079607;28;20466;-76
2023/07/05 11:52:24;;;;;;;6.07;1.05;;;18.50;99.90;;;;;;5071493;28;20040;-75
2023/07/05 11:55:12;;;;;;;5.05;0.90;;;18.50;99.90;;;;;;5061114;28;20032;-75
2023/07/05 11:57:40;;;;;;;6.88;1.60;;;18.50;99.90;;;;;;5070144;28;20036;-76
2023/07/05 12:00:20;;;;;;;3.47;0.90;;;18.50;99.90;;;;;;5077928;28;20040;-76
2023/07/05 12:02:48;;;;;;;5.45;1.40;;;18.40;99.90;;;;;;5077576;28;20050;-75
2023/07/05 12:05:17;;;;;;;5.45;1.30;;;18.10;99.90;;;;;;5076336;28;20444;-75
2023/07/05 12:07:54;;;;;;;9.65;2.00;;;17.80;99.90;;;;;;5076792;28;20028;-76
2023/07/05 12:10:27;;;;;;;7.05;1.77;;;17.50;99.90;;;;;;5074002;28;20514;-73
2023/07/05 12:12:52;;;;;;;5.97;1.93;;;16.90;99.90;;;;;;5075515;28;20132;-74
2023/07/05 12:15:18;;;;;;;7.18;2.00;;;16.30;99.90;;;;;;5072861;28;20690;-75
2023/07/05 12:17:45;;;;;;;7.65;1.90;;;15.80;99.90;;;;;;5078922;28;20028;-75
2023/07/05 12:20:29;;;;;;;6.43;1.42;;;15.40;99.90;;;;;;5079864;28;20032;-74
2023/07/05 12:22:57;;;;;;;4.70;1.40;;;15.10;99.90;;;;;;5077992;28;20491;-74
2023/07/05 12:25:24;;;;;;;9.50;2.30;;;14.90;99.90;;;;;;5053443;28;20139;-75
2023/07/05 12:27:51;;;;;;;4.75;1.75;;;14.60;99.90;;;;;;5077792;28;20035;-74
2023/07/05 12:30:19;;;;;;;7.20;2.13;;;14.40;99.90;;;;;;5087320;28;20031;-74
2023/07/05 12:32:54;;;;;;;5.80;1.77;;;14.30;99.90;;;;;;5075225;28;20040;-73
2023/07/05 12:35:25;;;;;;;6.10;1.90;;;14.10;99.90;;;;;;5080684;28;20044;-74
2023/07/05 12:37:53;;;;;;;8.38;2.20;;;13.90;99.90;;;;;;5076217;28;20041;-73
2023/07/05 12:40:33;;;;;;;11.27;2.90;;;13.80;99.90;;;;;;5086755;28;20329;-73
2023/07/05 12:43:06;;;;;;;12.80;2.92;;;13.70;99.90;;;;;;5080800;28;20040;-74
2023/07/05 12:45:34;;;;;;;11.43;3.00;;;13.60;99.90;;;;;;5080366;28;20035;-75
2023/07/05 12:48:13;;;;;;;9.98;2.92;;;13.60;99.90;;;;;;5076241;28;20048;-74
2023/07/05 12:50:38;;;;;;;10.88;2.92;;;13.60;99.90;;;;;;5083467;28;20404;-73
2023/07/05 12:53:13;;;;;;;11.40;3.05;;;13.60;99.90;;;;;;5079482;28;20085;-74